Time;durP1;ratioP1;P1;durP2;ratioP2;P2;SDS_P1;SDS_P2;PMS_P1;PMS_P2;Temp;Humidity;BMP_temperature;BMP_pressure;BME280_temperature;BME280_humidity;BME280_pressure;Samples;Min_cycle;Max_cycle;Signal;HPM_P1;HPM_P2
2023/10/05 00:00:46;;;;;;;8.57;2.83;;;;;;;11.70;100.00;102287.44;6215574;23;20072;-83
2023/10/05 00:03:12;;;;;;;14.15;3.20;;;;;;;11.67;100.00;102289.31;6215179;23;20009;-83
2023/10/05 00:05:37;;;;;;;9.93;3.00;;;;;;;11.82;100.00;102317.16;6215821;23;20011;-77
2023/10/05 00:08:07;;;;;;;9.27;3.05;;;;;;;11.74;100.00;102301.91;6222305;23;20016;-77
2023/10/05 00:10:33;;;;;;;7.88;2.97;;;;;;;11.81;100.00;102317.22;6220772;23;20000;-79
2023/10/05 00:13:04;;;;;;;10.63;3.20;;;;;;;11.64;100.00;102292.03;6215583;23;20406;-81
2023/10/05 00:15:31;;;;;;;8.32;2.70;;;;;;;11.78;100.00;102318.97;6215703;23;20012;-75
2023/10/05 00:17:57;;;;;;;10.30;3.00;;;;;;;11.74;100.00;102314.00;6215382;23;20001;-75
2023/10/05 00:20:25;;;;;;;10.75;3.13;;;;;;;11.77;100.00;102319.88;6215485;23;20015;-79
2023/10/05 00:22:51;;;;;;;8.93;3.10;;;;;;;11.58;100.00;102297.47;6215209;23;20005;-75
2023/10/05 00:25:17;;;;;;;9.48;3.05;;;;;;;11.67;100.00;102317.78;6215823;23;20003;-81
2023/10/05 00:27:49;;;;;;;8.30;2.80;;;;;;;11.67;100.00;102323.78;6215108;23;20054;-81
2023/10/05 00:30:17;;;;;;;7.82;3.35;;;;;;;11.76;100.00;102336.31;6215051;23;20019;-76
2023/10/05 00:32:48;;;;;;;12.52;3.00;;;;;;;11.69;100.00;102332.31;6215161;23;20000;-75
2023/10/05 00:35:16;;;;;;;9.60;3.22;;;;;;;11.57;100.00;102317.34;6214899;23;20083;-80
2023/10/05 00:37:44;;;;;;;9.55;2.92;;;;;;;11.68;100.00;102329.81;6215172;23;20430;-80
2023/10/05 00:40:17;;;;;;;8.07;2.92;;;;;;;11.74;100.00;102342.47;6215229;23;20334;-74
2023/10/05 00:42:43;;;;;;;10.75;3.63;;;;;;;11.74;100.00;102337.31;6215056;23;20011;-76
2023/10/05 00:45:11;;;;;;;7.90;3.03;;;;;;;11.69;100.00;102340.09;6213329;23;20083;-75
2023/10/05 00:47:37;;;;;;;7.55;2.90;;;;;;;11.69;100.00;102342.66;6215175;23;20411;-80
2023/10/05 00:50:04;;;;;;;7.75;3.05;;;;;;;11.67;100.00;102354.84;6215103;23;20011;-74
2023/10/05 00:52:30;;;;;;;12.75;3.67;;;;;;;11.58;100.00;102337.13;6215139;23;20046;-73
2023/10/05 00:54:58;;;;;;;9.48;3.10;;;;;;;11.64;100.00;102349.81;6215197;23;20009;-77
2023/10/05 00:57:24;;;;;;;5.90;2.70;;;;;;;11.42;100.00;102324.03;6215150;23;20000;-74
2023/10/05 01:02:22;;;;;;;10.05;3.60;;;;;;;11.58;100.00;102354.38;6224939;23;20445;-81
2023/10/05 01:07:28;;;;;;;10.30;3.55;;;;;;;11.34;100.00;102315.75;6225092;23;20012;-81
2023/10/05 01:12:36;;;;;;;10.65;3.38;;;;;;;11.23;100.00;102302.44;6225095;23;20016;-81
2023/10/05 01:15:05;;;;;;;9.10;3.35;;;;;;;11.29;100.00;102309.91;6214861;23;20079;-75
2023/10/05 01:17:30;;;;;;;12.50;3.70;;;;;;;11.52;100.00;102347.75;6215073;23;20062;-78
2023/10/05 01:20:07;;;;;;;12.13;3.55;;;;;;;11.44;100.00;102329.13;6214777;23;20439;-78
2023/10/05 01:22:33;;;;;;;9.15;3.17;;;;;;;11.37;100.00;102319.94;6215085;23;20012;-76
2023/10/05 01:25:04;;;;;;;11.85;3.38;;;;;;;11.47;100.00;102341.91;6214984;23;20009;-81
2023/10/05 01:27:30;;;;;;;14.03;3.83;;;;;;;11.45;100.00;102338.56;6214713;23;20009;-76
2023/10/05 01:29:56;;;;;;;13.07;4.50;;;;;;;11.47;100.00;102342.75;6215237;23;20051;-77
2023/10/05 01:32:22;;;;;;;10.63;3.75;;;;;;;11.47;100.00;102344.50;6214566;23;20009;-77
2023/10/05 01:34:49;;;;;;;9.70;3.03;;;;;;;11.47;100.00;102342.75;6214826;23;20063;-81
2023/10/05 01:37:18;;;;;;;7.82;2.95;;;;;;;11.46;100.00;102340.25;6215269;23;20311;-76
2023/10/05 01:39:44;;;;;;;10.55;3.15;;;;;;;11.40;100.00;102325.81;6216490;23;20373;-81
2023/10/05 01:42:14;;;;;;;9.43;4.05;;;;;;;11.34;100.00;102315.75;6216548;23;20422;-76
2023/10/05 01:44:47;;;;;;;9.13;3.53;;;;;;;11.48;100.00;102343.59;6216664;23;20071;-75
2023/10/05 01:47:17;;;;;;;8.35;3.53;;;;;;;11.43;100.00;102332.63;6216583;23;20007;-76
2023/10/05 01:49:45;;;;;;;13.75;3.92;;;;;;;11.42;100.00;102320.59;6216578;23;20058;-75
2023/10/05 01:52:10;;;;;;;7.20;3.30;;;;;;;11.52;100.00;102329.66;6216583;23;20037;-75
2023/10/05 01:54:36;;;;;;;10.95;3.63;;;;;;;11.23;100.00;102286.06;6216654;23;20039;-75
2023/10/05 01:57:06;;;;;;;11.63;3.53;;;;;;;11.42;100.00;102312.84;6214412;23;20040;-77
2023/10/05 01:59:34;;;;;;;13.00;3.80;;;;;;;11.49;100.00;102324.56;6216433;23;20111;-74
2023/10/05 02:02:04;;;;;;;13.40;3.63;;;;;;;11.49;100.00;102327.16;6216636;23;20084;-75
2023/10/05 02:04:30;;;;;;;9.93;3.72;;;;;;;11.47;100.00;102321.22;6215026;23;20020;-76
2023/10/05 02:06:55;;;;;;;11.13;3.50;;;;;;;11.32;100.00;102307.22;6216451;23;20083;-74
2023/10/05 02:09:21;;;;;;;8.95;3.30;;;;;;;11.40;100.00;102317.22;6216083;23;20024;-82
2023/10/05 02:11:52;;;;;;;12.20;3.95;;;;;;;11.29;100.00;102302.16;6216474;23;20055;-80
2023/10/05 02:14:17;;;;;;;10.67;3.80;;;;;;;11.35;100.00;102324.34;6216307;23;20009;-77
2023/10/05 02:16:48;;;;;;;10.38;3.88;;;;;;;11.26;100.00;102301.44;6216311;23;20617;-75
2023/10/05 02:19:14;;;;;;;;;;;;;;;11.31;100.00;102308.13;6216746;23;20090;-75
2023/10/05 02:21:39;;;;;;;14.13;4.28;;;;;;;11.10;100.00;102283.13;6215089;23;19920;-76
2023/10/05 02:24:18;;;;;;;8.50;3.78;;;;;;;11.25;100.00;102320.47;6215940;23;20005;-76
2023/10/05 02:29:23;;;;;;;9.98;3.33;;;;;;;11.15;100.00;102318.25;6226620;23;20009;-75
2023/10/05 02:34:24;;;;;;;9.27;4.35;;;;;;;11.15;100.00;102314.84;6226564;23;20025;-75
2023/10/05 02:36:50;;;;;;;10.98;4.00;;;;;;;11.14;100.00;102308.81;6216026;23;20012;-82
2023/10/05 02:39:16;;;;;;;10.20;3.90;;;;;;;11.13;100.00;102311.47;6216527;23;20009;-81
2023/10/05 02:41:43;;;;;;;17.60;4.45;;;;;;;10.95;100.00;102284.63;6216261;23;20004;-76
2023/10/05 02:44:27;;;;;;;9.90;3.75;;;;;;;10.91;100.00;102285.66;6216375;23;20005;-82
2023/10/05 02:46:52;;;;;;;10.68;3.95;;;;;;;10.99;100.00;102308.59;6215903;23;20050;-79
2023/10/05 02:49:19;;;;;;;14.75;4.22;;;;;;;10.93;100.00;102299.38;6215881;23;20008;-75
2023/10/05 02:51:46;;;;;;;12.75;4.20;;;;;;;10.92;100.00;102308.03;6215517;23;20000;-80
2023/10/05 02:54:12;;;;;;;11.98;4.13;;;;;;;10.80;100.00;102290.41;6215881;23;20005;-77
2023/10/05 02:56:40;;;;;;;11.05;3.92;;;;;;;10.73;100.00;102276.09;6215777;23;20437;-75
2023/10/05 02:59:15;;;;;;;12.25;4.32;;;;;;;10.86;100.00;102300.50;6215879;23;20001;-75
2023/10/05 03:01:43;;;;;;;12.88;4.32;;;;;;;10.74;100.00;102288.94;6215795;23;20009;-75
2023/10/05 03:06:40;;;;;;;;;;;;;;;10.82;100.00;102304.97;6216297;23;20017;-75
2023/10/05 03:09:09;;;;;;;10.65;3.80;;;;;;;10.82;100.00;102296.38;6213733;23;20345;-75
2023/10/05 03:11:39;;;;;;;9.57;3.80;;;;;;;10.74;100.00;102285.50;6215625;23;20054;-74
2023/10/05 03:14:05;;;;;;;12.50;4.07;;;;;;;10.57;100.00;102253.44;6215551;23;20004;-77
2023/10/05 03:16:42;;;;;;;13.45;4.22;;;;;;;10.83;100.00;102300.66;6220609;23;20005;-76
2023/10/05 03:19:08;;;;;;;12.27;3.85;;;;;;;10.57;100.00;102248.28;6218368;23;20094;-78
2023/10/05 03:21:34;;;;;;;9.45;3.50;;;;;;;10.82;100.00;102294.63;6217658;23;20009;-81
2023/10/05 03:23:59;;;;;;;9.23;3.65;;;;;;;10.80;100.00;102293.84;6216161;23;20449;-83
2023/10/05 03:26:25;;;;;;;12.23;5.13;;;;;;;10.80;100.00;102288.66;6215855;23;20418;-78
2023/10/05 03:28:50;;;;;;;14.43;4.45;;;;;;;10.83;100.00;102288.56;6213116;23;20011;-75
2023/10/05 03:31:32;;;;;;;10.80;4.45;;;;;;;10.86;100.00;102287.59;6215844;23;20001;-77
2023/10/05 03:33:57;;;;;;;11.75;4.45;;;;;;;10.91;100.00;102290.81;6215502;23;20005;-83
2023/10/05 03:36:23;;;;;;;12.35;4.68;;;;;;;10.84;100.00;102274.75;6215513;23;20012;-82
2023/10/05 03:38:57;;;;;;;18.58;5.03;;;;;;;10.74;100.00;102246.75;6215528;23;20376;-81
2023/10/05 03:41:26;;;;;;;11.15;4.20;;;;;;;10.98;100.00;102279.34;6215365;23;20007;-80
2023/10/05 03:43:55;;;;;;;12.10;3.67;;;;;;;10.84;100.00;102264.41;6215683;23;20423;-80
2023/10/05 03:46:24;;;;;;;13.82;4.25;;;;;;;10.95;100.00;102284.63;6215048;23;20032;-75
2023/10/05 03:48:50;;;;;;;13.20;4.63;;;;;;;10.94;100.00;102287.28;6215431;23;20048;-77
2023/10/05 03:51:16;;;;;;;10.70;3.92;;;;;;;10.75;100.00;102257.03;6215429;23;20422;-77
2023/10/05 03:53:48;;;;;;;14.30;4.07;;;;;;;10.71;100.00;102259.78;6215261;23;20009;-82
2023/10/05 03:56:17;;;;;;;12.48;4.20;;;;;;;10.79;100.00;102271.50;6215188;23;20008;-81
2023/10/05 03:58:42;;;;;;;10.98;3.95;;;;;;;10.77;100.00;102275.88;6215110;23;20407;-73
2023/10/05 04:01:11;;;;;;;8.38;4.07;;;;;;;10.66;100.00;102257.41;6215157;23;20012;-75
2023/10/05 04:03:37;;;;;;;8.93;4.18;;;;;;;10.86;100.00;102293.59;6215427;23;20001;-75
2023/10/05 04:06:04;;;;;;;14.80;4.00;;;;;;;10.88;100.00;102296.97;6215427;23;20489;-77
2023/10/05 04:08:31;;;;;;;13.88;3.95;;;;;;;10.89;100.00;102292.63;6215855;23;20061;-77
2023/10/05 04:10:59;;;;;;;13.75;4.30;;;;;;;10.85;100.00;102284.16;6215296;23;20045;-77
2023/10/05 04:13:26;;;;;;;12.77;4.10;;;;;;;10.94;100.00;102297.63;6214736;23;20008;-75
2023/10/05 04:15:51;;;;;;;11.35;3.92;;;;;;;10.97;100.00;102293.16;6187243;23;20072;-74
2023/10/05 04:18:20;;;;;;;13.30;4.18;;;;;;;11.00;100.00;102293.03;6215226;23;19996;-77
2023/10/05 04:20:46;;;;;;;15.00;3.95;;;;;;;11.00;100.00;102295.59;6215278;23;20012;-76
2023/10/05 04:23:25;;;;;;;8.77;4.28;;;;;;;10.95;100.00;102283.78;6215417;23;20005;-76
2023/10/05 04:25:52;;;;;;;8.98;4.07;;;;;;;11.04;100.00;102293.75;6215240;23;20012;-83
2023/10/05 04:28:22;;;;;;;10.88;4.10;;;;;;;11.07;100.00;102303.97;6214941;23;20099;-81
2023/10/05 04:30:49;;;;;;;8.98;3.60;;;;;;;10.78;100.00;102258.63;6215532;23;20414;-82
2023/10/05 04:33:14;;;;;;;8.85;3.67;;;;;;;11.02;100.00;102288.66;6215252;23;20008;-80
2023/10/05 04:35:45;;;;;;;10.88;3.80;;;;;;;11.03;100.00;102292.91;6215055;23;20039;-81
2023/10/05 04:38:10;;;;;;;9.05;3.78;;;;;;;11.08;100.00;102303.06;6215017;23;20004;-75
2023/10/05 04:40:38;;;;;;;13.13;4.15;;;;;;;10.79;100.00;102271.50;6215253;23;20085;-74
2023/10/05 04:43:05;;;;;;;10.20;3.95;;;;;;;11.00;100.00;102308.53;6214775;23;20008;-80
2023/10/05 04:45:31;;;;;;;9.95;4.30;;;;;;;10.83;100.00;102283.41;6215105;23;20445;-82
2023/10/05 04:47:58;;;;;;;10.00;3.95;;;;;;;10.92;100.00;102297.69;6214917;23;20004;-79
2023/10/05 04:50:24;;;;;;;7.97;3.90;;;;;;;10.89;100.00;102303.81;6215034;23;20086;-75
2023/10/05 04:52:51;;;;;;;10.77;3.97;;;;;;;10.82;100.00;102301.56;6215025;23;20376;-82
2023/10/05 04:55:30;;;;;;;14.40;4.00;;;;;;;10.79;100.00;102305.06;6215067;23;20084;-74
2023/10/05 04:58:14;;;;;;;12.55;4.20;;;;;;;10.73;100.00;102301.91;6214544;23;20024;-75
2023/10/05 05:00:49;;;;;;;9.30;3.72;;;;;;;10.60;100.00;102291.22;6212513;23;20012;-74
2023/10/05 05:08:24;;;;;;;11.77;3.85;;;;;;;10.60;100.00;102309.28;6214487;23;20020;-74
2023/10/05 05:10:49;;;;;;;11.13;3.67;;;;;;;10.48;100.00;102284.78;6214758;23;20005;-80
2023/10/05 05:13:15;;;;;;;10.60;3.70;;;;;;;10.56;100.00;102305.16;6215096;23;20080;-75
2023/10/05 05:15:40;;;;;;;11.60;4.40;;;;;;;10.53;100.00;102306.13;6217255;23;20000;-74
2023/10/05 05:18:14;;;;;;;11.20;4.10;;;;;;;10.55;100.00;102306.06;6217229;23;20418;-74
2023/10/05 05:20:44;;;;;;;13.05;4.70;;;;;;;10.54;100.00;102307.81;6216620;23;20456;-76
2023/10/05 05:23:10;;;;;;;14.82;4.28;;;;;;;10.41;100.00;102296.25;6216939;23;20015;-77
2023/10/05 05:25:37;;;;;;;13.65;4.43;;;;;;;10.51;100.00;102304.50;6217097;23;20323;-74
2023/10/05 05:28:05;;;;;;;13.07;4.45;;;;;;;10.50;100.00;102307.97;6216944;23;20008;-74
2023/10/05 05:30:36;;;;;;;13.25;4.75;;;;;;;10.53;100.00;102311.31;6216945;23;20054;-75
2023/10/05 05:33:09;;;;;;;12.07;4.70;;;;;;;10.50;100.00;102308.81;6216884;23;20036;-76
2023/10/05 05:35:35;;;;;;;11.00;5.03;;;;;;;10.55;100.00;102318.97;6216743;23;20134;-74
2023/10/05 05:38:01;;;;;;;12.38;4.60;;;;;;;10.56;100.00;102321.50;6216690;23;20051;-77
2023/10/05 05:40:29;;;;;;;12.27;4.93;;;;;;;10.56;100.00;102313.75;6214855;23;20004;-82
2023/10/05 05:42:56;;;;;;;12.80;5.18;;;;;;;10.57;100.00;102319.75;6216425;23;20008;-75
2023/10/05 05:45:21;;;;;;;14.15;5.10;;;;;;;10.43;100.00;102297.06;6216499;23;20423;-83
2023/10/05 05:47:47;;;;;;;12.40;4.22;;;;;;;10.68;100.00;102334.84;6216783;23;20084;-76
2023/10/05 05:50:23;;;;;;;13.80;4.80;;;;;;;10.73;100.00;102330.34;6216655;23;20071;-79
2023/10/05 05:52:51;;;;;;;10.07;4.60;;;;;;;10.80;100.00;102339.50;6216208;23;20312;-78
2023/10/05 05:55:22;;;;;;;11.65;4.40;;;;;;;10.83;100.00;102329.91;6216615;23;20005;-80
2023/10/05 05:57:51;;;;;;;9.73;4.72;;;;;;;10.63;100.00;102288.53;6216267;23;20004;-76
2023/10/05 06:00:18;;;;;;;15.13;5.25;;;;;;;11.00;100.00;102328.38;6216501;23;20077;-75
2023/10/05 06:02:44;;;;;;;11.57;4.82;;;;;;;11.03;100.00;102334.28;6216070;23;20032;-82
2023/10/05 06:05:13;;;;;;;11.85;4.80;;;;;;;11.08;100.00;102329.75;6216102;23;20042;-73
2023/10/05 06:07:40;;;;;;;13.05;4.70;;;;;;;11.12;100.00;102340.81;6214237;23;20382;-74
2023/10/05 06:10:14;;;;;;;12.20;5.28;;;;;;;11.04;100.00;102314.44;6216674;23;20001;-73
2023/10/05 06:12:41;;;;;;;13.07;4.57;;;;;;;11.11;100.00;102326.19;6216227;23;20012;-73
2023/10/05 06:15:09;;;;;;;14.75;4.88;;;;;;;11.25;100.00;102335.97;6216035;23;20470;-73
2023/10/05 06:17:35;;;;;;;13.60;5.07;;;;;;;11.27;100.00;102340.16;6215478;23;20608;-75
2023/10/05 06:20:13;;;;;;;13.73;4.88;;;;;;;11.31;100.00;102343.50;6186800;23;20167;-80
2023/10/05 06:22:38;;;;;;;14.77;4.93;;;;;;;11.35;100.00;102339.84;6217299;23;20024;-74
2023/10/05 06:25:04;;;;;;;11.02;4.85;;;;;;;11.31;100.00;102343.50;6220653;23;20011;-82
2023/10/05 06:27:29;;;;;;;11.52;4.88;;;;;;;11.35;100.00;102342.44;6215883;23;20008;-74
2023/10/05 06:29:55;;;;;;;12.52;4.85;;;;;;;11.43;100.00;102345.56;6216009;23;20382;-72
2023/10/05 06:32:20;;;;;;;11.63;4.70;;;;;;;11.46;100.00;102342.81;6215805;23;20080;-73
2023/10/05 06:34:45;;;;;;;13.23;4.80;;;;;;;11.55;100.00;102355.38;6215919;23;20000;-73
2023/10/05 06:37:13;;;;;;;13.25;5.20;;;;;;;11.56;100.00;102357.06;6215961;23;20032;-74
2023/10/05 06:39:39;;;;;;;11.70;4.93;;;;;;;11.48;100.00;102339.25;6216212;23;20004;-77
2023/10/05 06:42:04;;;;;;;13.63;5.18;;;;;;;11.62;100.00;102361.13;6215956;23;20437;-76
2023/10/05 06:44:30;;;;;;;16.85;4.95;;;;;;;11.61;100.00;102359.47;6215591;23;20015;-77
2023/10/05 06:46:56;;;;;;;13.27;5.05;;;;;;;11.57;100.00;102345.78;6215778;23;20004;-77
2023/10/05 06:49:22;;;;;;;9.75;4.45;;;;;;;11.67;100.00;102359.16;6215862;23;20008;-80
2023/10/05 06:51:48;;;;;;;15.65;5.05;;;;;;;11.64;100.00;102352.41;6213095;23;20335;-72
2023/10/05 06:54:14;;;;;;;13.25;5.30;;;;;;;11.69;100.00;102357.34;6215799;23;20012;-80
2023/10/05 06:56:41;;;;;;;11.93;4.78;;;;;;;11.80;100.00;102377.63;6215959;23;20068;-78
2023/10/05 06:59:07;;;;;;;12.93;4.88;;;;;;;11.91;100.00;102378.03;6188161;23;20012;-73
2023/10/05 07:01:34;;;;;;;13.70;5.18;;;;;;;11.98;100.00;102392.34;6215845;23;20028;-79
2023/10/05 07:04:00;;;;;;;11.60;4.82;;;;;;;12.03;100.00;102387.84;6189021;23;20004;-72
2023/10/05 07:06:29;;;;;;;11.98;5.00;;;;;;;11.99;100.00;102376.75;6215643;23;20011;-74
2023/10/05 07:08:56;;;;;;;15.43;5.22;;;;;;;12.12;100.00;102389.19;6215667;23;20339;-72
2023/10/05 07:11:22;;;;;;;12.80;4.80;;;;;;;12.15;100.00;102387.28;6214490;23;20001;-73
2023/10/05 07:13:48;;;;;;;13.55;4.50;;;;;;;11.97;100.00;102354.44;6215885;23;20012;-73
2023/10/05 07:16:14;;;;;;;14.25;5.72;;;;;;;12.21;100.00;102391.34;6215424;23;20139;-80
2023/10/05 07:18:39;;;;;;;13.63;5.60;;;;;;;12.32;100.00;102397.72;6215679;23;20381;-73
2023/10/05 07:21:08;;;;;;;10.18;4.70;;;;;;;12.42;100.00;102400.75;6215611;23;20008;-76
2023/10/05 07:23:36;;;;;;;16.42;5.15;;;;;;;12.53;100.00;102413.22;6215859;23;20024;-72
2023/10/05 07:26:03;;;;;;;13.65;5.55;;;;;;;12.54;100.00;102399.34;6213896;23;20011;-71
2023/10/05 07:28:28;;;;;;;12.18;5.20;;;;;;;12.68;100.00;102415.06;6216428;23;20000;-76
2023/10/05 07:30:56;;;;;;;11.40;4.68;;;;;;;12.68;100.00;102402.13;6215078;23;20304;-79
2023/10/05 07:33:21;;;;;;;14.48;5.45;;;;;;;12.79;100.00;102415.44;6215817;23;20012;-81
2023/10/05 07:35:47;;;;;;;8.90;4.68;;;;;;;12.88;100.00;102430.56;6216108;23;20333;-82
2023/10/05 07:38:14;;;;;;;10.80;4.10;;;;;;;12.98;100.00;102436.16;6215019;23;20015;-78
2023/10/05 07:40:41;;;;;;;12.55;4.60;;;;;;;13.09;100.00;102433.06;6215530;23;20009;-81
2023/10/05 07:43:07;;;;;;;10.57;4.75;;;;;;;12.92;100.00;102390.59;6215574;23;20001;-81
2023/10/05 07:45:33;;;;;;;11.05;4.28;;;;;;;13.30;100.00;102436.41;6215044;23;20055;-76
2023/10/05 07:47:59;;;;;;;12.68;5.28;;;;;;;13.39;100.00;102449.75;6215289;23;20001;-80
2023/10/05 07:50:26;;;;;;;12.18;4.80;;;;;;;13.48;100.00;102446.72;6215676;23;20011;-74
2023/10/05 07:52:51;;;;;;;13.05;5.00;;;;;;;13.62;100.00;102448.63;6215203;23;20418;-75
2023/10/05 07:55:17;;;;;;;15.48;5.13;;;;;;;13.61;100.00;102431.38;6215194;23;20008;-77
2023/10/05 07:57:43;;;;;;;13.18;4.93;;;;;;;13.76;100.00;102438.38;6215413;23;20078;-76
2023/10/05 08:00:12;;;;;;;10.77;4.93;;;;;;;13.72;100.00;102423.03;6214793;23;20001;-77
2023/10/05 08:02:38;;;;;;;13.80;4.72;;;;;;;13.75;100.00;102425.47;6215790;23;20004;-80
2023/10/05 08:05:05;;;;;;;13.30;4.28;;;;;;;13.94;100.00;102440.94;6215566;23;20012;-77
2023/10/05 08:07:31;;;;;;;11.75;4.43;;;;;;;14.05;100.00;102451.63;6215394;23;20039;-81
2023/10/05 08:09:56;;;;;;;10.85;4.32;;;;;;;14.10;100.00;102452.22;6215315;23;20005;-79
2023/10/05 08:12:23;;;;;;;10.75;4.47;;;;;;;14.12;100.00;102454.75;6215182;23;20028;-79
2023/10/05 08:14:48;;;;;;;12.63;4.32;;;;;;;14.18;100.00;102455.28;6187172;23;20062;-78
2023/10/05 08:17:17;;;;;;;10.23;3.97;;;;;;;14.19;100.00;102454.34;6213352;23;20005;-80
2023/10/05 08:19:42;;;;;;;11.23;4.78;;;;;;;14.21;100.00;102462.06;6214805;23;20036;-75
2023/10/05 08:22:09;;;;;;;10.30;4.82;;;;;;;14.28;100.00;102460.84;6214832;23;20034;-78
2023/10/05 08:24:35;;;;;;;15.52;5.13;;;;;;;14.27;100.00;102459.16;6215260;23;20004;-79
2023/10/05 08:27:00;;;;;;;11.00;4.25;;;;;;;14.37;100.00;102467.31;6214794;23;20004;-83
2023/10/05 08:29:27;;;;;;;10.18;4.50;;;;;;;14.30;100.00;102451.19;6214886;23;20005;-81
2023/10/05 08:31:53;;;;;;;11.18;4.78;;;;;;;14.43;100.00;102452.22;6188497;23;20013;-81
2023/10/05 08:34:21;;;;;;;12.57;4.63;;;;;;;14.53;100.00;102465.59;6215329;23;20438;-80
2023/10/05 08:36:53;;;;;;;9.98;4.50;;;;;;;14.61;100.00;102463.41;6214812;23;20100;-81
2023/10/05 08:39:24;;;;;;;;;;;;;;;14.79;100.00;102474.59;6215457;23;20001;-81
2023/10/05 08:41:50;;;;;;;11.70;4.55;;;;;;;14.86;100.00;102462.94;6215101;23;19911;-76
2023/10/05 08:44:36;;;;;;;10.15;4.40;;;;;;;14.92;100.00;102460.81;6215141;23;20026;-85
2023/10/05 08:47:05;;;;;;;12.75;3.92;;;;;;;15.05;100.00;102470.56;6214899;23;20028;-83
2023/10/05 08:49:36;;;;;;;10.98;4.07;;;;;;;15.17;100.00;102483.72;6187697;23;20127;-81
2023/10/05 08:52:13;;;;;;;10.68;4.75;;;;;;;15.19;100.00;102479.25;6212131;23;20009;-81
2023/10/05 08:54:38;;;;;;;14.77;4.55;;;;;;;15.32;100.00;102488.97;6214923;23;20004;-82
2023/10/05 08:57:10;;;;;;;7.43;3.67;;;;;;;15.35;100.00;102494.03;6215181;23;20063;-80
2023/10/05 08:59:50;;;;;;;13.18;3.97;;;;;;;15.41;100.00;102501.47;6215037;23;20063;-80
2023/10/05 09:02:18;;;;;;;12.75;4.13;;;;;;;15.43;100.00;102482.22;6214702;23;20091;-83
2023/10/05 09:04:51;;;;;;;10.45;4.03;;;;;;;15.55;100.00;102498.09;6215042;23;20015;-80
2023/10/05 09:07:35;;;;;;;13.45;4.30;;;;;;;15.48;100.00;102497.59;6214599;23;20012;-83
2023/10/05 09:10:01;;;;;;;13.15;4.50;;;;;;;15.46;100.00;102494.25;6214761;23;20001;-82
2023/10/05 09:12:37;;;;;;;12.18;4.28;;;;;;;15.53;100.00;102519.00;6214772;23;20011;-81
2023/10/05 09:15:19;;;;;;;11.32;4.35;;;;;;;15.55;100.00;102526.75;6211893;23;20066;-85
2023/10/05 09:18:17;;;;;;;14.02;4.20;;;;;;;15.57;100.00;102536.16;6215526;23;20008;-83
2023/10/05 09:20:42;;;;;;;14.18;4.65;;;;;;;15.43;100.00;102526.50;6213570;23;20450;-78
2023/10/05 09:23:13;;;;;;;11.13;4.03;;;;;;;15.59;100.00;102536.06;6214801;23;20009;-76
2023/10/05 09:25:44;;;;;;;10.82;4.53;;;;;;;15.54;100.00;102530.28;6214982;23;20000;-81
2023/10/05 09:28:16;;;;;;;10.82;4.32;;;;;;;15.60;100.00;102542.94;6216560;23;20004;-78
2023/10/05 09:30:59;;;;;;;11.57;4.50;;;;;;;15.66;100.00;102535.66;6222565;23;20039;-79
2023/10/05 09:33:34;;;;;;;12.93;4.47;;;;;;;15.71;100.00;102535.38;6220734;23;20009;-80
2023/10/05 09:36:16;;;;;;;10.75;4.20;;;;;;;15.71;100.00;102536.22;6215956;23;20036;-74
2023/10/05 09:38:43;;;;;;;15.43;4.70;;;;;;;15.71;100.00;102544.03;6215242;23;20005;-84
2023/10/05 09:41:11;;;;;;;8.98;3.75;;;;;;;15.62;100.00;102533.28;6215581;23;20027;-76
2023/10/05 09:43:40;;;;;;;9.52;4.57;;;;;;;15.74;100.00;102543.88;6215537;23;20312;-79
2023/10/05 09:46:09;;;;;;;12.95;4.78;;;;;;;15.81;100.00;102535.69;6215188;23;20422;-83
2023/10/05 09:48:37;;;;;;;11.00;4.18;;;;;;;15.75;100.00;102516.91;6212113;23;20012;-86
2023/10/05 09:51:13;;;;;;;11.90;4.65;;;;;;;15.85;100.00;102535.44;6214650;23;20032;-77
2023/10/05 09:53:41;;;;;;;11.98;4.65;;;;;;;15.91;100.00;102544.66;6214821;23;20087;-82
2023/10/05 09:56:11;;;;;;;13.25;4.53;;;;;;;15.92;100.00;102539.34;6215128;23;20000;-83
2023/10/05 09:58:39;;;;;;;12.55;4.10;;;;;;;15.98;100.00;102536.38;6215097;23;20276;-78
2023/10/05 10:01:12;;;;;;;8.52;3.83;;;;;;;16.00;100.00;102533.69;6216653;23;20004;-82
2023/10/05 10:03:45;;;;;;;12.27;4.65;;;;;;;15.99;100.00;102547.66;6216492;23;20004;-84
2023/10/05 10:06:13;;;;;;;11.30;4.22;;;;;;;15.99;100.00;102542.44;6216486;23;20330;-77
2023/10/05 10:08:57;;;;;;;11.52;4.38;;;;;;;15.93;100.00;102522.81;6216684;23;20011;-82
2023/10/05 10:11:27;;;;;;;10.52;4.00;;;;;;;15.97;100.00;102516.47;6216534;23;20330;-84
2023/10/05 10:14:01;;;;;;;12.55;4.50;;;;;;;16.01;100.00;102517.13;6216422;23;20044;-82
2023/10/05 10:16:28;;;;;;;12.10;4.32;;;;;;;16.07;100.00;102519.38;6216704;23;20304;-85
2023/10/05 10:19:04;;;;;;;12.32;4.40;;;;;;;16.30;99.23;102539.69;6216402;23;20007;-81
2023/10/05 10:21:41;;;;;;;11.63;4.15;;;;;;;16.37;99.93;102539.34;6215960;23;20052;-84
2023/10/05 10:24:08;;;;;;;9.13;3.75;;;;;;;16.34;99.61;102522.94;6216284;23;20013;-82
2023/10/05 10:26:43;;;;;;;8.80;4.18;;;;;;;16.60;100.00;102539.59;6216199;23;20047;-82
2023/10/05 10:29:12;;;;;;;12.57;4.57;;;;;;;16.37;98.99;102501.06;6188902;23;20008;-85
2023/10/05 10:31:47;;;;;;;11.25;4.38;;;;;;;16.64;97.88;102540.28;6214629;23;20028;-81
2023/10/05 10:34:28;;;;;;;11.30;4.47;;;;;;;16.59;97.80;102524.06;6215935;23;20009;-81
2023/10/05 10:36:58;;;;;;;11.60;4.25;;;;;;;16.64;97.56;102538.50;6216456;23;20009;-84
2023/10/05 10:39:31;;;;;;;9.48;3.67;;;;;;;16.75;97.09;102534.41;6216896;23;20004;-80
2023/10/05 10:42:19;;;;;;;12.18;4.53;;;;;;;16.80;95.94;102541.00;6216217;23;20001;-83
2023/10/05 10:47:16;;;;;;;9.15;4.07;;;;;;;16.83;96.73;102535.63;6225436;23;20012;-84
2023/10/05 10:50:08;;;;;;;12.63;4.47;;;;;;;16.95;97.77;102535.78;6216064;23;20506;-83
2023/10/05 10:52:36;;;;;;;13.02;4.25;;;;;;;17.04;97.33;102523.00;6215931;23;20005;-79
2023/10/05 10:55:03;;;;;;;10.93;4.28;;;;;;;16.92;95.63;102501.13;6216255;23;20012;-82
2023/10/05 10:57:29;;;;;;;9.52;4.30;;;;;;;17.11;95.34;102507.78;6213741;23;20004;-83
2023/10/05 11:00:44;;;;;;;9.00;3.97;;;;;;;17.27;96.82;102516.31;6214092;23;20086;-85
2023/10/05 11:02:42;;;;;;;10.93;3.83;;;;;;;17.24;95.28;102506.06;6215532;23;20438;-85
2023/10/05 11:05:15;;;;;;;10.02;4.53;;;;;;;17.33;93.68;102522.91;6216085;23;20005;-80
2023/10/05 11:07:43;;;;;;;14.70;4.72;;;;;;;17.30;95.86;102513.47;6215803;23;20004;-82
2023/10/05 11:10:18;;;;;;;11.57;3.92;;;;;;;17.24;94.25;102513.06;6214202;23;20503;-80
2023/10/05 11:12:53;;;;;;;9.70;3.95;;;;;;;17.29;95.02;102517.03;6216092;23;20004;-84
2023/10/05 11:15:19;;;;;;;10.25;3.97;;;;;;;17.35;92.74;102511.44;6215667;23;20005;-78
2023/10/05 11:17:46;;;;;;;10.45;4.15;;;;;;;17.39;91.68;102525.94;6215856;23;20055;-78
2023/10/05 11:20:25;;;;;;;10.15;4.30;;;;;;;17.38;93.00;102502.53;6189049;23;20513;-81
2023/10/05 11:22:55;;;;;;;9.32;3.75;;;;;;;17.45;93.04;102517.72;6215783;23;20005;-82
2023/10/05 11:25:31;;;;;;;13.55;3.75;;;;;;;17.48;93.72;102512.28;6215926;23;20024;-82
2023/10/05 11:27:59;;;;;;;14.55;4.28;;;;;;;17.57;92.26;102505.63;6215543;23;20029;-81
2023/10/05 11:30:45;;;;;;;10.80;3.53;;;;;;;17.85;92.69;102520.34;6215307;23;20009;-75
2023/10/05 11:33:15;;;;;;;7.95;3.47;;;;;;;17.85;87.76;102516.91;6215640;23;20353;-79
2023/10/05 11:35:48;;;;;;;13.07;3.75;;;;;;;17.84;90.57;102512.63;6215478;23;20011;-83
2023/10/05 11:38:16;;;;;;;11.68;3.50;;;;;;;17.91;89.92;102517.34;6215346;23;20461;-83
2023/10/05 11:40:49;;;;;;;7.90;3.15;;;;;;;17.78;87.63;102490.34;6215528;23;20000;-79
2023/10/05 11:43:16;;;;;;;8.13;2.85;;;;;;;17.81;85.64;102508.44;6213015;23;20012;-73